sensor_id;sensor_type;location;lat;lon;timestamp;temperature;humidity
2729;DHT22;1372;47.956;7.830;2023-04-03T00:01:37;7.20;99.90
2729;DHT22;1372;47.956;7.830;2023-04-03T00:04:10;7.30;99.90
2729;DHT22;1372;47.956;7.830;2023-04-03T00:06:38;7.20;99.90
2729;DHT22;1372;47.956;7.830;2023-04-03T00:09:10;7.30;99.90
2729;DHT22;1372;47.956;7.830;2023-04-03T00:11:38;7.20;99.90
2729;DHT22;1372;47.956;7.830;2023-04-03T00:14:07;7.20;99.90
2729;DHT22;1372;47.956;7.830;2023-04-03T00:16:36;7.20;99.90
2729;DHT22;1372;47.956;7.830;2023-04-03T00:19:05;7.10;99.90
2729;DHT22;1372;47.956;7.830;2023-04-03T00:21:36;7.00;99.90
2729;DHT22;1372;47.956;7.830;2023-04-03T00:24:05;7.00;99.90
2729;DHT22;1372;47.956;7.830;2023-04-03T00:26:34;7.10;99.90
2729;DHT22;1372;47.956;7.830;2023-04-03T00:29:03;7.10;99.90
2729;DHT22;1372;47.956;7.830;2023-04-03T00:31:32;7.20;99.90
2729;DHT22;1372;47.956;7.830;2023-04-03T00:34:01;7.10;99.90
2729;DHT22;1372;47.956;7.830;2023-04-03T00:36:30;7.10;99.90
2729;DHT22;1372;47.956;7.830;2023-04-03T00:39:00;7.00;99.90
2729;DHT22;1372;47.956;7.830;2023-04-03T00:41:29;6.90;99.90
2729;DHT22;1372;47.956;7.830;2023-04-03T00:43:59;7.00;99.90
2729;DHT22;1372;47.956;7.830;2023-04-03T00:46:28;7.00;99.90
2729;DHT22;1372;47.956;7.830;2023-04-03T00:48:57;6.80;99.90
2729;DHT22;1372;47.956;7.830;2023-04-03T00:51:26;6.90;99.90
2729;DHT22;1372;47.956;7.830;2023-04-03T00:53:58;6.80;99.90
2729;DHT22;1372;47.956;7.830;2023-04-03T00:56:30;6.80;99.90
2729;DHT22;1372;47.956;7.830;2023-04-03T00:59:02;6.80;99.90
2729;DHT22;1372;47.956;7.830;2023-04-03T01:01:33;6.80;99.90
2729;DHT22;1372;47.956;7.830;2023-04-03T01:04:04;6.70;99.90
2729;DHT22;1372;47.956;7.830;2023-04-03T01:06:36;6.70;99.90
2729;DHT22;1372;47.956;7.830;2023-04-03T01:09:07;6.60;99.90
2729;DHT22;1372;47.956;7.830;2023-04-03T01:11:35;6.60;99.90
2729;DHT22;1372;47.956;7.830;2023-04-03T01:14:04;6.80;99.90
2729;DHT22;1372;47.956;7.830;2023-04-03T01:16:33;6.60;99.90
2729;DHT22;1372;47.956;7.830;2023-04-03T01:19:03;6.40;99.90
2729;DHT22;1372;47.956;7.830;2023-04-03T01:21:54;6.30;99.90
2729;DHT22;1372;47.956;7.830;2023-04-03T01:24:43;6.40;99.90
2729;DHT22;1372;47.956;7.830;2023-04-03T01:27:13;6.60;99.90
2729;DHT22;1372;47.956;7.830;2023-04-03T01:29:42;6.40;99.90
2729;DHT22;1372;47.956;7.830;2023-04-03T01:32:13;6.60;99.90
2729;DHT22;1372;47.956;7.830;2023-04-03T01:34:44;6.60;99.90
2729;DHT22;1372;47.956;7.830;2023-04-03T01:37:13;6.70;99.90
2729;DHT22;1372;47.956;7.830;2023-04-03T01:39:41;6.60;99.90
2729;DHT22;1372;47.956;7.830;2023-04-03T01:42:10;6.60;99.90
2729;DHT22;1372;47.956;7.830;2023-04-03T01:44:39;6.50;99.90
2729;DHT22;1372;47.956;7.830;2023-04-03T01:47:08;6.40;99.90
2729;DHT22;1372;47.956;7.830;2023-04-03T01:49:38;6.30;99.90
2729;DHT22;1372;47.956;7.830;2023-04-03T01:52:07;6.30;99.90
2729;DHT22;1372;47.956;7.830;2023-04-03T01:54:35;6.30;99.90
2729;DHT22;1372;47.956;7.830;2023-04-03T01:57:04;6.40;99.90
2729;DHT22;1372;47.956;7.830;2023-04-03T01:59:33;6.50;99.90
2729;DHT22;1372;47.956;7.830;2023-04-03T02:02:02;6.40;99.90
2729;DHT22;1372;47.956;7.830;2023-04-03T02:04:31;6.50;99.90
2729;DHT22;1372;47.956;7.830;2023-04-03T02:07:01;6.60;99.90
2729;DHT22;1372;47.956;7.830;2023-04-03T02:09:29;6.60;99.90
2729;DHT22;1372;47.956;7.830;2023-04-03T02:11:58;6.60;99.90
2729;DHT22;1372;47.956;7.830;2023-04-03T02:14:29;6.60;99.90
2729;DHT22;1372;47.956;7.830;2023-04-03T02:16:58;6.60;99.90
2729;DHT22;1372;47.956;7.830;2023-04-03T02:19:32;6.60;99.90
2729;DHT22;1372;47.956;7.830;2023-04-03T02:22:02;6.60;99.90
2729;DHT22;1372;47.956;7.830;2023-04-03T02:24:31;6.50;99.90
2729;DHT22;1372;47.956;7.830;2023-04-03T02:27:00;6.50;99.90
2729;DHT22;1372;47.956;7.830;2023-04-03T02:29:31;6.40;99.90
2729;DHT22;1372;47.956;7.830;2023-04-03T02:32:00;6.50;99.90
2729;DHT22;1372;47.956;7.830;2023-04-03T02:34:29;6.50;99.90
2729;DHT22;1372;47.956;7.830;2023-04-03T02:36:57;6.60;99.90
2729;DHT22;1372;47.956;7.830;2023-04-03T02:39:30;6.50;99.90
2729;DHT22;1372;47.956;7.830;2023-04-03T02:41:59;6.40;99.90
2729;DHT22;1372;47.956;7.830;2023-04-03T02:44:28;6.30;99.90
2729;DHT22;1372;47.956;7.830;2023-04-03T02:46:57;6.30;99.90
2729;DHT22;1372;47.956;7.830;2023-04-03T02:49:28;6.30;99.90
2729;DHT22;1372;47.956;7.830;2023-04-03T02:51:56;6.30;99.90
2729;DHT22;1372;47.956;7.830;2023-04-03T02:54:25;6.10;99.90
2729;DHT22;1372;47.956;7.830;2023-04-03T02:57:01;6.00;99.90
2729;DHT22;1372;47.956;7.830;2023-04-03T02:59:30;5.90;99.90
2729;DHT22;1372;47.956;7.830;2023-04-03T03:01:58;5.90;99.90
2729;DHT22;1372;47.956;7.830;2023-04-03T03:04:27;5.90;99.90
2729;DHT22;1372;47.956;7.830;2023-04-03T03:06:57;5.90;99.90
2729;DHT22;1372;47.956;7.830;2023-04-03T03:09:26;6.10;99.90
2729;DHT22;1372;47.956;7.830;2023-04-03T03:11:55;6.20;99.90
2729;DHT22;1372;47.956;7.830;2023-04-03T03:14:25;6.20;99.90
2729;DHT22;1372;47.956;7.830;2023-04-03T03:16:53;6.20;99.90
2729;DHT22;1372;47.956;7.830;2023-04-03T03:19:22;6.00;99.90
2729;DHT22;1372;47.956;7.830;2023-04-03T03:21:51;6.00;99.90
2729;DHT22;1372;47.956;7.830;2023-04-03T03:24:19;6.00;99.90
2729;DHT22;1372;47.956;7.830;2023-04-03T03:26:48;6.10;99.90
2729;DHT22;1372;47.956;7.830;2023-04-03T03:29:19;5.90;99.90
2729;DHT22;1372;47.956;7.830;2023-04-03T03:31:50;6.10;99.90
2729;DHT22;1372;47.956;7.830;2023-04-03T03:34:18;6.00;99.90
2729;DHT22;1372;47.956;7.830;2023-04-03T03:36:47;5.90;99.90
2729;DHT22;1372;47.956;7.830;2023-04-03T03:39:16;5.90;99.90
2729;DHT22;1372;47.956;7.830;2023-04-03T03:41:47;6.10;99.90
2729;DHT22;1372;47.956;7.830;2023-04-03T03:44:16;6.10;99.90
2729;DHT22;1372;47.956;7.830;2023-04-03T03:46:45;6.10;99.90
2729;DHT22;1372;47.956;7.830;2023-04-03T03:49:15;6.10;99.90
2729;DHT22;1372;47.956;7.830;2023-04-03T03:51:44;6.00;99.90
2729;DHT22;1372;47.956;7.830;2023-04-03T03:54:13;5.90;99.90
2729;DHT22;1372;47.956;7.830;2023-04-03T03:56:42;5.90;99.90
2729;DHT22;1372;47.956;7.830;2023-04-03T03:59:11;6.00;99.90
2729;DHT22;1372;47.956;7.830;2023-04-03T04:01:40;5.80;99.90
2729;DHT22;1372;47.956;7.830;2023-04-03T04:04:11;5.80;99.90
2729;DHT22;1372;47.956;7.830;2023-04-03T04:06:42;5.80;99.90
2729;DHT22;1372;47.956;7.830;2023-04-03T04:09:11;5.80;99.90
2729;DHT22;1372;47.956;7.830;2023-04-03T04:11:40;5.70;99.90
2729;DHT22;1372;47.956;7.830;2023-04-03T04:14:08;5.70;99.90
2729;DHT22;1372;47.956;7.830;2023-04-03T04:16:41;5.70;99.90
2729;DHT22;1372;47.956;7.830;2023-04-03T04:19:10;5.80;99.90
2729;DHT22;1372;47.956;7.830;2023-04-03T04:21:39;5.80;99.90
2729;DHT22;1372;47.956;7.830;2023-04-03T04:24:09;5.70;99.90
2729;DHT22;1372;47.956;7.830;2023-04-03T04:26:38;5.60;99.90
2729;DHT22;1372;47.956;7.830;2023-04-03T04:29:09;5.80;99.90
2729;DHT22;1372;47.956;7.830;2023-04-03T04:31:38;5.90;99.90
2729;DHT22;1372;47.956;7.830;2023-04-03T04:34:07;5.90;99.90
2729;DHT22;1372;47.956;7.830;2023-04-03T04:36:36;5.80;99.90
2729;DHT22;1372;47.956;7.830;2023-04-03T04:39:05;5.80;99.90
2729;DHT22;1372;47.956;7.830;2023-04-03T04:41:35;5.70;99.90
2729;DHT22;1372;47.956;7.830;2023-04-03T04:44:03;5.80;99.90
2729;DHT22;1372;47.956;7.830;2023-04-03T04:46:34;5.70;99.90
2729;DHT22;1372;47.956;7.830;2023-04-03T04:49:03;5.80;99.90
2729;DHT22;1372;47.956;7.830;2023-04-03T04:51:32;5.80;99.90
2729;DHT22;1372;47.956;7.830;2023-04-03T04:54:13;5.90;99.90
2729;DHT22;1372;47.956;7.830;2023-04-03T04:56:43;6.00;99.90
2729;DHT22;1372;47.956;7.830;2023-04-03T04:59:12;6.00;99.90
2729;DHT22;1372;47.956;7.830;2023-04-03T05:01:41;6.10;99.90
2729;DHT22;1372;47.956;7.830;2023-04-03T05:04:09;6.10;99.90
2729;DHT22;1372;47.956;7.830;2023-04-03T05:06:39;6.10;99.90
2729;DHT22;1372;47.956;7.830;2023-04-03T05:09:08;6.10;99.90
2729;DHT22;1372;47.956;7.830;2023-04-03T05:11:37;6.10;99.90
2729;DHT22;1372;47.956;7.830;2023-04-03T05:14:07;6.10;99.90
2729;DHT22;1372;47.956;7.830;2023-04-03T05:16:38;6.10;99.90
2729;DHT22;1372;47.956;7.830;2023-04-03T05:19:07;6.00;99.90
2729;DHT22;1372;47.956;7.830;2023-04-03T05:21:37;5.90;99.90
2729;DHT22;1372;47.956;7.830;2023-04-03T05:24:06;6.00;99.90
2729;DHT22;1372;47.956;7.830;2023-04-03T05:26:38;6.00;99.90
2729;DHT22;1372;47.956;7.830;2023-04-03T05:29:09;6.10;99.90
2729;DHT22;1372;47.956;7.830;2023-04-03T05:31:38;6.10;99.90
2729;DHT22;1372;47.956;7.830;2023-04-03T05:34:07;6.10;99.90
2729;DHT22;1372;47.956;7.830;2023-04-03T05:36:36;6.00;99.90
2729;DHT22;1372;47.956;7.830;2023-04-03T05:39:05;6.10;99.90
2729;DHT22;1372;47.956;7.830;2023-04-03T05:41:34;6.10;99.90
2729;DHT22;1372;47.956;7.830;2023-04-03T05:44:02;6.10;99.90
2729;DHT22;1372;47.956;7.830;2023-04-03T05:46:33;6.10;99.90
2729;DHT22;1372;47.956;7.830;2023-04-03T05:49:01;6.10;99.90
2729;DHT22;1372;47.956;7.830;2023-04-03T05:51:33;6.10;99.90
2729;DHT22;1372;47.956;7.830;2023-04-03T05:54:09;6.00;99.90
2729;DHT22;1372;47.956;7.830;2023-04-03T05:56:40;6.10;99.90
2729;DHT22;1372;47.956;7.830;2023-04-03T05:59:09;6.20;99.90
2729;DHT22;1372;47.956;7.830;2023-04-03T06:01:40;6.30;99.90
2729;DHT22;1372;47.956;7.830;2023-04-03T06:04:08;6.30;99.90
2729;DHT22;1372;47.956;7.830;2023-04-03T06:06:45;6.30;99.90
2729;DHT22;1372;47.956;7.830;2023-04-03T06:09:15;6.20;99.90
2729;DHT22;1372;47.956;7.830;2023-04-03T06:11:44;6.20;99.90
2729;DHT22;1372;47.956;7.830;2023-04-03T06:14:13;6.30;99.90
2729;DHT22;1372;47.956;7.830;2023-04-03T06:16:43;6.40;99.90
2729;DHT22;1372;47.956;7.830;2023-04-03T06:19:14;6.40;99.90
2729;DHT22;1372;47.956;7.830;2023-04-03T06:21:43;6.40;99.90
2729;DHT22;1372;47.956;7.830;2023-04-03T06:24:15;6.40;99.90
2729;DHT22;1372;47.956;7.830;2023-04-03T06:26:44;6.40;99.90
2729;DHT22;1372;47.956;7.830;2023-04-03T06:29:13;6.40;99.90
2729;DHT22;1372;47.956;7.830;2023-04-03T06:31:44;6.50;99.90
2729;DHT22;1372;47.956;7.830;2023-04-03T06:34:13;6.50;99.90
2729;DHT22;1372;47.956;7.830;2023-04-03T06:36:43;6.60;99.90
2729;DHT22;1372;47.956;7.830;2023-04-03T06:39:14;6.70;99.90
2729;DHT22;1372;47.956;7.830;2023-04-03T06:41:45;6.60;99.90
2729;DHT22;1372;47.956;7.830;2023-04-03T06:44:13;6.70;99.90
2729;DHT22;1372;47.956;7.830;2023-04-03T06:46:45;6.80;99.90
2729;DHT22;1372;47.956;7.830;2023-04-03T06:49:16;6.80;99.90
2729;DHT22;1372;47.956;7.830;2023-04-03T06:51:48;6.80;99.90
2729;DHT22;1372;47.956;7.830;2023-04-03T06:54:17;7.00;99.90
2729;DHT22;1372;47.956;7.830;2023-04-03T06:56:46;7.10;99.90
2729;DHT22;1372;47.956;7.830;2023-04-03T06:59:19;7.00;99.90
2729;DHT22;1372;47.956;7.830;2023-04-03T07:02:00;7.00;99.90
2729;DHT22;1372;47.956;7.830;2023-04-03T07:04:32;7.10;99.90
2729;DHT22;1372;47.956;7.830;2023-04-03T07:07:00;7.10;99.90
2729;DHT22;1372;47.956;7.830;2023-04-03T07:09:32;7.20;99.90
2729;DHT22;1372;47.956;7.830;2023-04-03T07:12:01;7.20;99.90
2729;DHT22;1372;47.956;7.830;2023-04-03T07:14:30;7.40;99.90
2729;DHT22;1372;47.956;7.830;2023-04-03T07:17:00;7.40;99.90
2729;DHT22;1372;47.956;7.830;2023-04-03T07:19:46;7.50;99.90
2729;DHT22;1372;47.956;7.830;2023-04-03T07:22:15;7.60;99.90
2729;DHT22;1372;47.956;7.830;2023-04-03T07:24:48;7.60;99.90
2729;DHT22;1372;47.956;7.830;2023-04-03T07:27:21;7.60;99.90
2729;DHT22;1372;47.956;7.830;2023-04-03T07:29:53;7.60;99.90
2729;DHT22;1372;47.956;7.830;2023-04-03T07:32:25;7.70;99.90
2729;DHT22;1372;47.956;7.830;2023-04-03T07:35:03;7.70;99.90
2729;DHT22;1372;47.956;7.830;2023-04-03T07:37:33;7.70;99.90
2729;DHT22;1372;47.956;7.830;2023-04-03T07:40:18;7.70;99.90
2729;DHT22;1372;47.956;7.830;2023-04-03T07:42:48;7.70;99.90
2729;DHT22;1372;47.956;7.830;2023-04-03T07:45:48;7.80;99.90
2729;DHT22;1372;47.956;7.830;2023-04-03T07:48:20;7.90;99.90
2729;DHT22;1372;47.956;7.830;2023-04-03T07:50:53;7.90;99.90
2729;DHT22;1372;47.956;7.830;2023-04-03T07:53:28;8.00;99.90
2729;DHT22;1372;47.956;7.830;2023-04-03T07:56:01;7.90;99.90
2729;DHT22;1372;47.956;7.830;2023-04-03T07:58:30;8.00;99.90
2729;DHT22;1372;47.956;7.830;2023-04-03T08:01:02;7.90;99.90
2729;DHT22;1372;47.956;7.830;2023-04-03T08:03:35;8.00;99.90
2729;DHT22;1372;47.956;7.830;2023-04-03T08:06:08;8.10;99.90
2729;DHT22;1372;47.956;7.830;2023-04-03T08:08:43;8.00;99.90
2729;DHT22;1372;47.956;7.830;2023-04-03T08:11:28;8.10;99.90
2729;DHT22;1372;47.956;7.830;2023-04-03T08:14:07;8.10;99.90
2729;DHT22;1372;47.956;7.830;2023-04-03T08:16:45;8.00;99.90
2729;DHT22;1372;47.956;7.830;2023-04-03T08:19:56;8.00;99.90
2729;DHT22;1372;47.956;7.830;2023-04-03T08:22:39;8.20;99.90
2729;DHT22;1372;47.956;7.830;2023-04-03T08:25:09;8.50;99.90
2729;DHT22;1372;47.956;7.830;2023-04-03T08:27:37;8.90;99.90
2729;DHT22;1372;47.956;7.830;2023-04-03T08:30:07;8.80;99.90
2729;DHT22;1372;47.956;7.830;2023-04-03T08:32:37;9.00;99.90
2729;DHT22;1372;47.956;7.830;2023-04-03T08:35:10;9.10;99.90
2729;DHT22;1372;47.956;7.830;2023-04-03T08:37:43;9.10;99.90
2729;DHT22;1372;47.956;7.830;2023-04-03T08:40:14;9.10;99.90
2729;DHT22;1372;47.956;7.830;2023-04-03T08:42:53;9.10;99.90
2729;DHT22;1372;47.956;7.830;2023-04-03T08:45:31;9.00;99.90
2729;DHT22;1372;47.956;7.830;2023-04-03T08:48:08;9.00;99.90
2729;DHT22;1372;47.956;7.830;2023-04-03T08:50:46;9.10;99.90
2729;DHT22;1372;47.956;7.830;2023-04-03T08:53:21;9.10;99.90
2729;DHT22;1372;47.956;7.830;2023-04-03T08:55:55;9.10;99.90
2729;DHT22;1372;47.956;7.830;2023-04-03T08:58:28;9.00;99.90
2729;DHT22;1372;47.956;7.830;2023-04-03T09:01:01;9.00;99.90
2729;DHT22;1372;47.956;7.830;2023-04-03T09:03:32;9.00;99.90
2729;DHT22;1372;47.956;7.830;2023-04-03T09:06:11;9.00;99.90
2729;DHT22;1372;47.956;7.830;2023-04-03T09:08:45;9.10;99.90
2729;DHT22;1372;47.956;7.830;2023-04-03T09:11:22;9.20;99.90
2729;DHT22;1372;47.956;7.830;2023-04-03T09:13:57;9.30;99.90
2729;DHT22;1372;47.956;7.830;2023-04-03T09:16:37;9.40;99.90
2729;DHT22;1372;47.956;7.830;2023-04-03T09:19:16;9.40;99.90
2729;DHT22;1372;47.956;7.830;2023-04-03T09:21:56;9.30;99.90
2729;DHT22;1372;47.956;7.830;2023-04-03T09:24:25;9.20;99.90
2729;DHT22;1372;47.956;7.830;2023-04-03T09:26:57;9.30;99.90
2729;DHT22;1372;47.956;7.830;2023-04-03T09:29:30;9.30;99.90
2729;DHT22;1372;47.956;7.830;2023-04-03T09:32:00;9.10;99.90
2729;DHT22;1372;47.956;7.830;2023-04-03T09:34:32;9.00;99.90
2729;DHT22;1372;47.956;7.830;2023-04-03T09:37:07;8.90;99.90
2729;DHT22;1372;47.956;7.830;2023-04-03T09:39:49;8.80;99.90
2729;DHT22;1372;47.956;7.830;2023-04-03T09:42:22;8.70;99.90
2729;DHT22;1372;47.956;7.830;2023-04-03T09:44:54;8.70;99.90
2729;DHT22;1372;47.956;7.830;2023-04-03T09:47:26;8.60;99.90
2729;DHT22;1372;47.956;7.830;2023-04-03T09:50:22;8.60;99.90
2729;DHT22;1372;47.956;7.830;2023-04-03T09:52:52;8.60;99.90
2729;DHT22;1372;47.956;7.830;2023-04-03T09:55:22;8.50;99.90
2729;DHT22;1372;47.956;7.830;2023-04-03T09:57:58;8.50;99.90
2729;DHT22;1372;47.956;7.830;2023-04-03T10:00:31;8.50;99.90
2729;DHT22;1372;47.956;7.830;2023-04-03T10:03:03;8.60;99.90
2729;DHT22;1372;47.956;7.830;2023-04-03T10:05:35;8.70;99.90
2729;DHT22;1372;47.956;7.830;2023-04-03T10:08:20;8.70;99.90
2729;DHT22;1372;47.956;7.830;2023-04-03T10:11:13;8.60;99.90
2729;DHT22;1372;47.956;7.830;2023-04-03T10:13:52;8.70;99.90
2729;DHT22;1372;47.956;7.830;2023-04-03T10:16:32;8.70;99.90
2729;DHT22;1372;47.956;7.830;2023-04-03T10:19:33;8.60;99.90
2729;DHT22;1372;47.956;7.830;2023-04-03T10:22:13;8.50;99.90
2729;DHT22;1372;47.956;7.830;2023-04-03T10:24:56;8.70;99.90
2729;DHT22;1372;47.956;7.830;2023-04-03T10:27:40;8.90;99.90
2729;DHT22;1372;47.956;7.830;2023-04-03T10:30:27;9.10;99.90
2729;DHT22;1372;47.956;7.830;2023-04-03T10:33:13;9.10;99.90
2729;DHT22;1372;47.956;7.830;2023-04-03T10:36:23;8.90;99.90
2729;DHT22;1372;47.956;7.830;2023-04-03T10:39:03;9.00;99.90
2729;DHT22;1372;47.956;7.830;2023-04-03T10:41:52;9.00;99.90
2729;DHT22;1372;47.956;7.830;2023-04-03T10:44:52;9.10;99.90
2729;DHT22;1372;47.956;7.830;2023-04-03T10:47:34;9.20;99.90
2729;DHT22;1372;47.956;7.830;2023-04-03T10:50:22;9.10;99.90
2729;DHT22;1372;47.956;7.830;2023-04-03T10:53:05;9.10;99.90
2729;DHT22;1372;47.956;7.830;2023-04-03T10:55:44;9.10;99.90
2729;DHT22;1372;47.956;7.830;2023-04-03T10:58:23;9.00;99.90
2729;DHT22;1372;47.956;7.830;2023-04-03T11:01:01;9.00;99.90
2729;DHT22;1372;47.956;7.830;2023-04-03T11:03:36;8.80;99.90
2729;DHT22;1372;47.956;7.830;2023-04-03T11:06:10;8.80;99.90
2729;DHT22;1372;47.956;7.830;2023-04-03T11:08:44;8.60;99.90
2729;DHT22;1372;47.956;7.830;2023-04-03T11:11:17;8.60;99.90
2729;DHT22;1372;47.956;7.830;2023-04-03T11:13:54;8.70;99.90
2729;DHT22;1372;47.956;7.830;2023-04-03T11:16:27;8.80;99.90
2729;DHT22;1372;47.956;7.830;2023-04-03T11:19:10;8.90;99.90
2729;DHT22;1372;47.956;7.830;2023-04-03T11:21:54;8.90;99.90
2729;DHT22;1372;47.956;7.830;2023-04-03T11:24:27;8.90;99.90
2729;DHT22;1372;47.956;7.830;2023-04-03T11:27:00;8.90;99.90
2729;DHT22;1372;47.956;7.830;2023-04-03T11:29:36;9.00;99.90
2729;DHT22;1372;47.956;7.830;2023-04-03T11:32:23;9.00;99.90
2729;DHT22;1372;47.956;7.830;2023-04-03T11:35:05;9.10;99.90
2729;DHT22;1372;47.956;7.830;2023-04-03T11:37:49;8.90;99.90
2729;DHT22;1372;47.956;7.830;2023-04-03T11:40:24;8.70;99.90
2729;DHT22;1372;47.956;7.830;2023-04-03T11:43:04;8.80;99.90
2729;DHT22;1372;47.956;7.830;2023-04-03T11:45:56;8.80;99.90
2729;DHT22;1372;47.956;7.830;2023-04-03T11:48:48;8.70;99.90
2729;DHT22;1372;47.956;7.830;2023-04-03T11:51:41;8.80;99.90
2729;DHT22;1372;47.956;7.830;2023-04-03T11:54:36;8.70;99.90
2729;DHT22;1372;47.956;7.830;2023-04-03T11:57:43;8.90;99.90
2729;DHT22;1372;47.956;7.830;2023-04-03T12:07:11;9.20;99.90
2729;DHT22;1372;47.956;7.830;2023-04-03T12:10:00;9.30;99.90
2729;DHT22;1372;47.956;7.830;2023-04-03T12:12:35;9.30;99.90
2729;DHT22;1372;47.956;7.830;2023-04-03T12:15:25;9.50;99.90
2729;DHT22;1372;47.956;7.830;2023-04-03T12:18:42;9.60;99.90
2729;DHT22;1372;47.956;7.830;2023-04-03T12:21:24;9.60;99.90
2729;DHT22;1372;47.956;7.830;2023-04-03T12:24:30;9.40;99.90
2729;DHT22;1372;47.956;7.830;2023-04-03T12:27:21;9.50;99.90
2729;DHT22;1372;47.956;7.830;2023-04-03T12:30:05;9.60;99.90
2729;DHT22;1372;47.956;7.830;2023-04-03T12:33:02;9.60;99.90
2729;DHT22;1372;47.956;7.830;2023-04-03T12:35:44;9.60;99.90
2729;DHT22;1372;47.956;7.830;2023-04-03T12:38:46;9.50;99.90
2729;DHT22;1372;47.956;7.830;2023-04-03T12:41:36;9.50;99.90
2729;DHT22;1372;47.956;7.830;2023-04-03T12:44:25;9.30;99.90
2729;DHT22;1372;47.956;7.830;2023-04-03T12:47:16;9.20;99.90
2729;DHT22;1372;47.956;7.830;2023-04-03T12:49:52;9.20;99.90
2729;DHT22;1372;47.956;7.830;2023-04-03T12:52:37;9.20;99.90
2729;DHT22;1372;47.956;7.830;2023-04-03T12:55:15;9.20;99.90
2729;DHT22;1372;47.956;7.830;2023-04-03T12:57:52;9.10;99.90
2729;DHT22;1372;47.956;7.830;2023-04-03T13:00:29;9.10;99.90
2729;DHT22;1372;47.956;7.830;2023-04-03T13:03:03;9.00;99.90
2729;DHT22;1372;47.956;7.830;2023-04-03T13:05:34;9.10;99.90
2729;DHT22;1372;47.956;7.830;2023-04-03T13:08:05;9.10;99.90
2729;DHT22;1372;47.956;7.830;2023-04-03T13:10:49;9.00;99.90
2729;DHT22;1372;47.956;7.830;2023-04-03T13:13:24;9.00;99.90
2729;DHT22;1372;47.956;7.830;2023-04-03T13:15:54;9.10;99.90
2729;DHT22;1372;47.956;7.830;2023-04-03T13:18:29;9.00;99.90
2729;DHT22;1372;47.956;7.830;2023-04-03T13:21:03;9.00;99.90
2729;DHT22;1372;47.956;7.830;2023-04-03T13:23:44;9.00;99.90
2729;DHT22;1372;47.956;7.830;2023-04-03T13:26:21;8.90;99.90
2729;DHT22;1372;47.956;7.830;2023-04-03T13:28:53;9.00;99.90
2729;DHT22;1372;47.956;7.830;2023-04-03T13:31:26;8.80;99.90
2729;DHT22;1372;47.956;7.830;2023-04-03T13:34:02;8.80;99.90
2729;DHT22;1372;47.956;7.830;2023-04-03T13:36:34;8.90;99.90
2729;DHT22;1372;47.956;7.830;2023-04-03T13:39:06;9.10;99.90
2729;DHT22;1372;47.956;7.830;2023-04-03T13:41:53;9.20;99.90
2729;DHT22;1372;47.956;7.830;2023-04-03T13:44:31;9.20;99.90
2729;DHT22;1372;47.956;7.830;2023-04-03T13:47:16;9.30;99.90
2729;DHT22;1372;47.956;7.830;2023-04-03T13:50:00;9.40;99.90
2729;DHT22;1372;47.956;7.830;2023-04-03T13:52:34;9.40;99.90
2729;DHT22;1372;47.956;7.830;2023-04-03T13:55:21;9.40;99.90
2729;DHT22;1372;47.956;7.830;2023-04-03T13:57:56;9.30;99.90
2729;DHT22;1372;47.956;7.830;2023-04-03T14:00:33;9.10;99.90
2729;DHT22;1372;47.956;7.830;2023-04-03T14:03:12;9.10;99.90
2729;DHT22;1372;47.956;7.830;2023-04-03T14:05:42;9.10;99.90
2729;DHT22;1372;47.956;7.830;2023-04-03T14:08:12;9.10;99.90
2729;DHT22;1372;47.956;7.830;2023-04-03T14:10:41;9.10;99.90
2729;DHT22;1372;47.956;7.830;2023-04-03T14:13:14;9.00;99.90
2729;DHT22;1372;47.956;7.830;2023-04-03T14:15:47;9.10;99.90
2729;DHT22;1372;47.956;7.830;2023-04-03T14:18:19;9.10;99.90
2729;DHT22;1372;47.956;7.830;2023-04-03T14:20:50;9.00;99.90
2729;DHT22;1372;47.956;7.830;2023-04-03T14:23:19;9.00;99.90
2729;DHT22;1372;47.956;7.830;2023-04-03T14:25:48;9.10;99.90
2729;DHT22;1372;47.956;7.830;2023-04-03T14:28:20;9.10;99.90
2729;DHT22;1372;47.956;7.830;2023-04-03T14:30:51;9.20;99.90
2729;DHT22;1372;47.956;7.830;2023-04-03T14:33:22;9.00;99.90
2729;DHT22;1372;47.956;7.830;2023-04-03T14:35:53;9.00;99.90
2729;DHT22;1372;47.956;7.830;2023-04-03T14:38:25;9.10;99.90
2729;DHT22;1372;47.956;7.830;2023-04-03T14:40:56;9.10;99.90
2729;DHT22;1372;47.956;7.830;2023-04-03T14:43:36;9.10;99.90
2729;DHT22;1372;47.956;7.830;2023-04-03T14:46:13;9.10;99.90
2729;DHT22;1372;47.956;7.830;2023-04-03T14:48:43;9.10;99.90
2729;DHT22;1372;47.956;7.830;2023-04-03T14:51:14;9.10;99.90
2729;DHT22;1372;47.956;7.830;2023-04-03T14:53:44;9.10;99.90
2729;DHT22;1372;47.956;7.830;2023-04-03T14:56:17;8.90;99.90
2729;DHT22;1372;47.956;7.830;2023-04-03T14:58:57;8.90;99.90
2729;DHT22;1372;47.956;7.830;2023-04-03T15:01:30;8.90;99.90
2729;DHT22;1372;47.956;7.830;2023-04-03T15:03:59;8.90;99.90
2729;DHT22;1372;47.956;7.830;2023-04-03T15:06:28;8.90;99.90
2729;DHT22;1372;47.956;7.830;2023-04-03T15:09:00;8.90;99.90
2729;DHT22;1372;47.956;7.830;2023-04-03T15:11:30;8.80;99.90
2729;DHT22;1372;47.956;7.830;2023-04-03T15:13:59;8.80;99.90
2729;DHT22;1372;47.956;7.830;2023-04-03T15:16:29;8.80;99.90
2729;DHT22;1372;47.956;7.830;2023-04-03T15:18:58;8.70;99.90
2729;DHT22;1372;47.956;7.830;2023-04-03T15:21:27;8.80;99.90
2729;DHT22;1372;47.956;7.830;2023-04-03T15:23:56;8.90;99.90
2729;DHT22;1372;47.956;7.830;2023-04-03T15:26:26;8.90;99.90
2729;DHT22;1372;47.956;7.830;2023-04-03T15:28:55;8.90;99.90
2729;DHT22;1372;47.956;7.830;2023-04-03T15:31:24;8.90;99.90
2729;DHT22;1372;47.956;7.830;2023-04-03T15:33:57;8.80;99.90
2729;DHT22;1372;47.956;7.830;2023-04-03T15:36:26;8.90;99.90
2729;DHT22;1372;47.956;7.830;2023-04-03T15:39:01;8.70;99.90
2729;DHT22;1372;47.956;7.830;2023-04-03T15:41:30;8.80;99.90
2729;DHT22;1372;47.956;7.830;2023-04-03T15:43:59;8.90;99.90
2729;DHT22;1372;47.956;7.830;2023-04-03T15:46:28;8.90;99.90
2729;DHT22;1372;47.956;7.830;2023-04-03T15:48:59;8.80;99.90
2729;DHT22;1372;47.956;7.830;2023-04-03T15:51:28;8.80;99.90
2729;DHT22;1372;47.956;7.830;2023-04-03T15:53:57;8.90;99.90
2729;DHT22;1372;47.956;7.830;2023-04-03T15:56:26;8.80;99.90
2729;DHT22;1372;47.956;7.830;2023-04-03T15:58:55;8.80;99.90
2729;DHT22;1372;47.956;7.830;2023-04-03T16:01:24;8.80;99.90
2729;DHT22;1372;47.956;7.830;2023-04-03T16:03:53;8.80;99.90
2729;DHT22;1372;47.956;7.830;2023-04-03T16:06:25;8.70;99.90
2729;DHT22;1372;47.956;7.830;2023-04-03T16:08:56;8.70;99.90
2729;DHT22;1372;47.956;7.830;2023-04-03T16:11:26;8.60;99.90
2729;DHT22;1372;47.956;7.830;2023-04-03T16:13:56;8.60;99.90
2729;DHT22;1372;47.956;7.830;2023-04-03T16:16:25;8.80;99.90
2729;DHT22;1372;47.956;7.830;2023-04-03T16:18:54;8.80;99.90
2729;DHT22;1372;47.956;7.830;2023-04-03T16:21:26;8.60;99.90
2729;DHT22;1372;47.956;7.830;2023-04-03T16:23:57;8.40;99.90
2729;DHT22;1372;47.956;7.830;2023-04-03T16:26:27;8.40;99.90
2729;DHT22;1372;47.956;7.830;2023-04-03T16:28:56;8.50;99.90
2729;DHT22;1372;47.956;7.830;2023-04-03T16:31:27;8.50;99.90
2729;DHT22;1372;47.956;7.830;2023-04-03T16:33:57;8.40;99.90
2729;DHT22;1372;47.956;7.830;2023-04-03T16:36:27;8.40;99.90
2729;DHT22;1372;47.956;7.830;2023-04-03T16:38:59;8.30;99.90
2729;DHT22;1372;47.956;7.830;2023-04-03T16:41:27;8.30;99.90
2729;DHT22;1372;47.956;7.830;2023-04-03T16:43:56;8.20;99.90
2729;DHT22;1372;47.956;7.830;2023-04-03T16:46:26;8.30;99.90
2729;DHT22;1372;47.956;7.830;2023-04-03T16:48:55;8.40;99.90
2729;DHT22;1372;47.956;7.830;2023-04-03T16:51:28;8.50;99.90
2729;DHT22;1372;47.956;7.830;2023-04-03T16:54:01;8.40;99.90
2729;DHT22;1372;47.956;7.830;2023-04-03T16:56:30;8.40;99.90
2729;DHT22;1372;47.956;7.830;2023-04-03T16:58:59;8.20;99.90
2729;DHT22;1372;47.956;7.830;2023-04-03T17:01:28;8.20;99.90
2729;DHT22;1372;47.956;7.830;2023-04-03T17:03:58;8.20;99.90
2729;DHT22;1372;47.956;7.830;2023-04-03T17:06:29;8.20;99.90